createdAt,value
2019-05-13T00:01:26.768Z,102175.13
2019-05-13T00:04:00.760Z,102180.58
2019-05-13T00:06:34.299Z,102179.78
2019-05-13T00:09:08.783Z,102182.02
2019-05-13T00:11:43.775Z,102181.02
2019-05-13T00:14:24.414Z,102184.70
2019-05-13T00:17:14.637Z,102182.20
2019-05-13T00:19:49.434Z,102182.70
2019-05-13T00:22:26.167Z,102190.12
2019-05-13T00:25:05.013Z,102181.77
2019-05-13T00:27:38.735Z,102185.70
2019-05-13T00:30:15.481Z,102181.83
2019-05-13T00:32:48.831Z,102187.27
2019-05-13T00:35:25.512Z,102192.00
2019-05-13T00:37:59.690Z,102188.20
2019-05-13T00:40:33.907Z,102186.05
2019-05-13T00:43:07.952Z,102190.20
2019-05-13T00:45:44.190Z,102189.54
2019-05-13T00:48:19.357Z,102188.02
2019-05-13T00:50:54.262Z,102174.08
2019-05-13T00:53:27.888Z,102174.25
2019-05-13T00:56:04.053Z,102173.17
2019-05-13T00:58:36.825Z,102167.89
2019-05-13T01:01:10.243Z,102168.23
2019-05-13T01:03:44.178Z,102168.65
2019-05-13T01:06:17.724Z,102167.71
2019-05-13T01:08:53.634Z,102168.53
2019-05-13T01:11:27.683Z,102171.64
2019-05-13T01:14:04.313Z,102170.46
2019-05-13T01:16:44.385Z,102168.73
2019-05-13T01:19:18.412Z,102170.20
2019-05-13T01:21:54.004Z,102176.95
2019-05-13T01:24:26.981Z,102180.20
2019-05-13T01:27:03.839Z,102186.03
2019-05-13T01:29:44.360Z,102182.77
2019-05-13T01:32:17.851Z,102183.92
2019-05-13T01:34:54.236Z,102182.53
2019-05-13T01:37:41.967Z,102183.08
2019-05-13T01:40:18.154Z,102184.45
2019-05-13T01:42:54.389Z,102180.77
2019-05-13T01:45:30.755Z,102181.22
2019-05-13T01:48:07.160Z,102180.58
2019-05-13T01:50:46.999Z,102175.52
2019-05-13T01:53:19.759Z,102177.14
2019-05-13T01:55:53.411Z,102177.11
2019-05-13T01:58:27.720Z,102174.92
2019-05-13T02:01:04.764Z,102177.80
2019-05-13T02:03:38.707Z,102175.87
2019-05-13T02:06:14.237Z,102177.83
2019-05-13T02:08:47.692Z,102181.98
2019-05-13T02:11:24.972Z,102185.62
2019-05-13T02:14:00.550Z,102190.80
2019-05-13T02:16:35.072Z,102186.23
2019-05-13T02:19:09.808Z,102177.10
2019-05-13T02:21:45.012Z,102176.48
2019-05-13T02:24:23.666Z,102189.47
2019-05-13T02:26:57.940Z,102191.71
2019-05-13T02:29:31.266Z,102198.48
2019-05-13T02:32:05.730Z,102203.73
2019-05-13T02:34:43.266Z,102199.30
2019-05-13T02:37:22.868Z,102207.17
2019-05-13T02:39:56.717Z,102206.90
2019-05-13T02:42:33.050Z,102206.58
2019-05-13T02:45:07.545Z,102203.94
2019-05-13T02:47:44.158Z,102207.08
2019-05-13T02:50:22.340Z,102199.33
2019-05-13T02:52:56.434Z,102201.72
2019-05-13T02:55:32.690Z,102200.22
2019-05-13T02:58:06.204Z,102202.11
2019-05-13T03:00:43.839Z,102205.04
2019-05-13T03:03:17.157Z,102201.08
2019-05-13T03:05:52.369Z,102206.22
2019-05-13T03:08:39.305Z,102207.55
2019-05-13T03:11:22.522Z,102209.37
2019-05-13T03:13:56.536Z,102216.65
2019-05-13T03:16:42.762Z,102213.40
2019-05-13T03:19:15.644Z,102215.52
2019-05-13T03:21:48.196Z,102216.16
2019-05-13T03:24:22.775Z,102216.24
2019-05-13T03:26:55.832Z,102220.39
2019-05-13T03:29:28.458Z,102223.73
2019-05-13T03:32:05.485Z,102227.27
2019-05-13T03:34:44.654Z,102235.91
2019-05-13T03:37:18.405Z,102232.91
2019-05-13T03:39:52.324Z,102235.36
2019-05-13T03:42:26.915Z,102238.01
2019-05-13T03:45:02.731Z,102238.28
2019-05-13T03:47:35.900Z,102241.90
2019-05-13T03:50:08.426Z,102244.88
2019-05-13T03:52:43.316Z,102245.59
2019-05-13T03:55:17.706Z,102253.66
2019-05-13T03:57:53.244Z,102251.84
2019-05-13T04:00:26.138Z,102252.92
2019-05-13T04:02:58.908Z,102261.62
2019-05-13T04:05:33.378Z,102265.27
2019-05-13T04:08:06.369Z,102265.52
2019-05-13T04:10:41.945Z,102272.39
2019-05-13T04:13:14.989Z,102272.64
2019-05-13T04:15:47.797Z,102275.70
2019-05-13T04:18:23.345Z,102276.79
2019-05-13T04:20:56.423Z,102281.76
2019-05-13T04:23:31.999Z,102277.77
2019-05-13T04:26:05.961Z,102283.59
2019-05-13T04:28:38.699Z,102281.02
2019-05-13T04:31:14.093Z,102283.81
2019-05-13T04:33:48.403Z,102277.23
2019-05-13T04:36:23.414Z,102280.28
2019-05-13T04:38:57.589Z,102271.23
2019-05-13T04:41:32.954Z,102269.97
2019-05-13T04:44:07.118Z,102268.36
2019-05-13T04:46:43.097Z,102267.10
2019-05-13T04:49:16.712Z,102272.22
2019-05-13T04:51:52.143Z,102277.78
2019-05-13T04:54:25.494Z,102274.21
2019-05-13T04:56:58.312Z,102283.95
2019-05-13T04:59:34.632Z,102288.20
2019-05-13T05:02:54.515Z,102287.69
2019-05-13T05:06:03.206Z,102287.66
2019-05-13T05:09:28.875Z,102291.30
2019-05-13T05:13:18.104Z,102289.80
2019-05-13T05:16:42.061Z,102280.50
2019-05-13T05:19:54.954Z,102289.42
2019-05-13T05:23:35.998Z,102289.77
2019-05-13T05:27:18.286Z,102294.09
2019-05-13T05:30:45.851Z,102292.40
2019-05-13T05:34:13.386Z,102295.56
2019-05-13T05:37:23.452Z,102290.84
2019-05-13T05:39:56.540Z,102292.92
2019-05-13T05:42:32.121Z,102288.48
2019-05-13T05:45:07.201Z,102286.73
2019-05-13T05:47:41.765Z,102287.28
2019-05-13T05:50:14.683Z,102291.55
2019-05-13T05:52:47.356Z,102290.17
2019-05-13T05:55:22.039Z,102290.16
2019-05-13T05:57:55.508Z,102296.10
2019-05-13T06:00:27.938Z,102295.94
2019-05-13T06:03:02.456Z,102297.88
2019-05-13T06:05:36.351Z,102297.47
2019-05-13T06:08:11.294Z,102298.41
2019-05-13T06:10:50.154Z,102303.11
2019-05-13T06:13:25.882Z,102307.37
2019-05-13T06:15:58.487Z,102304.78
2019-05-13T06:18:32.508Z,102303.53
2019-05-13T06:21:05.330Z,102303.64
2019-05-13T06:23:38.052Z,102303.78
2019-05-13T06:26:12.580Z,102307.81
2019-05-13T06:28:47.388Z,102311.30
2019-05-13T06:31:21.563Z,102316.81
2019-05-13T06:33:55.349Z,102316.16
2019-05-13T06:36:28.272Z,102317.87
2019-05-13T06:39:02.255Z,102315.36
2019-05-13T06:41:36.519Z,102318.64
2019-05-13T06:44:12.087Z,102315.27
2019-05-13T06:46:44.886Z,102311.98
2019-05-13T06:49:17.701Z,102315.10
2019-05-13T06:51:51.978Z,102317.92
2019-05-13T06:54:27.136Z,102316.69
2019-05-13T06:57:04.465Z,102319.58
2019-05-13T06:59:42.476Z,102321.31
2019-05-13T07:02:15.975Z,102321.75
2019-05-13T07:04:48.506Z,102323.03
2019-05-13T07:07:21.864Z,102323.74
2019-05-13T07:09:56.616Z,102322.94
2019-05-13T07:12:36.204Z,102327.82
2019-05-13T07:15:11.579Z,102328.11
2019-05-13T07:17:44.575Z,102327.25
2019-05-13T07:20:22.325Z,102330.20
2019-05-13T07:22:56.132Z,102322.64
2019-05-13T07:25:32.670Z,102322.38
2019-05-13T07:28:07.351Z,102311.51
2019-05-13T07:30:43.130Z,102312.19
2019-05-13T07:33:15.704Z,102316.38
2019-05-13T07:35:57.380Z,102312.30
2019-05-13T07:38:32.436Z,102321.05
2019-05-13T07:41:06.155Z,102324.80
2019-05-13T07:43:38.707Z,102327.40
2019-05-13T07:46:12.838Z,102328.56
2019-05-13T07:48:45.529Z,102327.28
2019-05-13T07:51:18.830Z,102328.33
2019-05-13T07:53:53.308Z,102323.97
2019-05-13T07:56:26.715Z,102322.52
2019-05-13T07:59:01.719Z,102329.42
2019-05-13T08:01:36.013Z,102327.20
2019-05-13T08:04:21.902Z,102321.06
2019-05-13T08:06:56.152Z,102319.05
2019-05-13T08:09:31.129Z,102322.39
2019-05-13T08:12:11.016Z,102317.58
2019-05-13T08:14:47.285Z,102322.05
2019-05-13T08:17:22.253Z,102324.57
2019-05-13T08:19:55.268Z,102320.84
2019-05-13T08:22:27.831Z,102325.39
2019-05-13T08:25:03.218Z,102321.06
2019-05-13T08:27:38.853Z,102322.83
2019-05-13T08:30:17.867Z,102327.56
2019-05-13T08:32:54.402Z,102323.69
2019-05-13T08:35:27.095Z,102326.08
2019-05-13T08:38:01.836Z,102334.56
2019-05-13T08:40:36.985Z,102331.73
2019-05-13T08:43:12.076Z,102328.34
2019-05-13T08:45:44.877Z,102323.89
2019-05-13T08:48:17.740Z,102323.86
2019-05-13T08:50:53.044Z,102326.80
2019-05-13T08:53:25.808Z,102328.17
2019-05-13T08:55:58.620Z,102326.22
2019-05-13T08:58:32.652Z,102325.00
2019-05-13T09:01:06.526Z,102320.58
2019-05-13T09:03:41.548Z,102314.07
2019-05-13T09:06:17.761Z,102317.21
2019-05-13T09:08:53.956Z,102319.73
2019-05-13T09:11:27.523Z,102313.95
2019-05-13T09:14:04.347Z,102314.23
2019-05-13T09:16:38.311Z,102313.59
2019-05-13T09:19:15.769Z,102306.86
2019-05-13T09:21:48.922Z,102315.81
2019-05-13T09:24:29.036Z,102315.49
2019-05-13T09:27:12.162Z,102313.23
2019-05-13T09:29:45.595Z,102314.42
2019-05-13T09:32:21.422Z,102308.59
2019-05-13T09:34:54.447Z,102307.30
2019-05-13T09:37:27.143Z,102307.30
2019-05-13T09:40:02.170Z,102306.67
2019-05-13T09:42:48.187Z,102314.14
2019-05-13T09:47:55.395Z,102308.78
2019-05-13T09:50:32.337Z,102306.01
2019-05-13T09:53:11.497Z,102311.97
2019-05-13T09:55:45.916Z,102303.55
2019-05-13T09:58:18.365Z,102308.69
2019-05-13T10:00:53.357Z,102302.23
2019-05-13T10:03:29.660Z,102304.34
2019-05-13T10:06:08.461Z,102306.59
2019-05-13T10:08:42.491Z,102312.48
2019-05-13T10:11:16.828Z,102303.20
2019-05-13T10:13:53.276Z,102300.52
2019-05-13T10:16:28.421Z,102295.84
2019-05-13T10:19:01.638Z,102302.80
2019-05-13T10:21:36.880Z,102291.44
2019-05-13T10:24:12.341Z,102290.58
2019-05-13T10:26:46.493Z,102296.58
2019-05-13T10:29:23.273Z,102301.05
2019-05-13T10:31:56.723Z,102300.70
2019-05-13T10:34:32.159Z,102297.23
2019-05-13T10:37:05.781Z,102292.55
2019-05-13T10:39:42.035Z,102291.25
2019-05-13T10:42:17.451Z,102291.88
2019-05-13T10:44:52.504Z,102291.20
2019-05-13T10:47:27.136Z,102290.59
2019-05-13T10:50:02.789Z,102285.42
2019-05-13T10:52:42.532Z,102274.06
2019-05-13T10:55:21.603Z,102261.69
2019-05-13T10:57:57.589Z,102263.45
2019-05-13T11:00:47.097Z,102260.39
2019-05-13T11:03:22.715Z,102260.41
2019-05-13T11:05:57.907Z,102262.92
2019-05-13T11:08:33.041Z,102257.36
2019-05-13T11:11:06.070Z,102260.70
2019-05-13T11:13:54.027Z,102248.25
2019-05-13T11:16:30.823Z,102254.21
2019-05-13T11:19:05.784Z,102243.81
2019-05-13T11:21:38.400Z,102238.95
2019-05-13T11:24:12.847Z,102243.73
2019-05-13T11:26:47.659Z,102234.30
2019-05-13T11:29:23.197Z,102234.45
2019-05-13T11:31:58.689Z,102235.84
2019-05-13T11:34:33.057Z,102228.02
2019-05-13T11:37:06.673Z,102219.63
2019-05-13T11:39:39.432Z,102222.98
2019-05-13T11:42:13.512Z,102224.89
2019-05-13T11:44:48.148Z,102222.05
2019-05-13T11:47:20.736Z,102219.79
2019-05-13T11:49:53.468Z,102222.09
2019-05-13T11:52:28.243Z,102218.06
2019-05-13T11:55:03.292Z,102214.77
2019-05-13T11:57:36.060Z,102218.42
2019-05-13T12:00:14.021Z,102218.59
2019-05-13T12:02:53.818Z,102216.84
2019-05-13T12:05:32.648Z,102207.62
2019-05-13T12:08:12.539Z,102200.48
2019-05-13T12:10:46.421Z,102197.47
2019-05-13T12:13:22.666Z,102204.16
2019-05-13T12:15:56.326Z,102206.09
2019-05-13T12:18:28.946Z,102204.05
2019-05-13T12:21:03.688Z,102200.92
2019-05-13T12:23:37.253Z,102193.87
2019-05-13T12:26:12.717Z,102188.22
2019-05-13T12:28:46.388Z,102177.77
2019-05-13T12:31:22.040Z,102173.98
2019-05-13T12:33:55.705Z,102176.36
2019-05-13T12:36:32.919Z,102163.28
2019-05-13T12:39:07.888Z,102164.86
2019-05-13T12:41:45.637Z,102168.38
2019-05-13T12:44:18.267Z,102171.48
2019-05-13T12:46:54.090Z,102166.22
2019-05-13T12:49:32.416Z,102160.52
2019-05-13T12:52:12.990Z,102158.86
2019-05-13T12:54:47.354Z,102152.14
2019-05-13T12:57:23.121Z,102147.44
2019-05-13T12:59:57.831Z,102153.05
2019-05-13T13:02:36.469Z,102149.02
2019-05-13T13:05:18.526Z,102146.31
2019-05-13T13:08:16.749Z,102139.89
2019-05-13T13:10:53.237Z,102137.03
2019-05-13T13:13:52.632Z,102139.36
2019-05-13T13:16:34.539Z,102136.81
2019-05-13T13:19:15.546Z,102133.08
2019-05-13T13:21:48.204Z,102139.51
2019-05-13T13:24:23.696Z,102132.53
2019-05-13T13:26:56.883Z,102125.93
2019-05-13T13:29:29.634Z,102121.77
2019-05-13T13:32:07.201Z,102117.34
2019-05-13T13:34:43.636Z,102115.27
2019-05-13T13:37:17.018Z,102113.29
2019-05-13T13:39:55.164Z,102118.08
2019-05-13T13:42:28.617Z,102119.25
2019-05-13T13:45:05.996Z,102103.08
2019-05-13T13:47:40.589Z,102107.59
2019-05-13T13:50:23.633Z,102102.56
2019-05-13T13:52:57.434Z,102099.93
2019-05-13T13:55:32.429Z,102093.10
2019-05-13T13:58:15.157Z,102087.36
2019-05-13T14:01:01.811Z,102086.99
2019-05-13T14:03:45.950Z,102082.56
2019-05-13T14:07:22.012Z,102079.42
2019-05-13T14:10:06.776Z,102081.31
2019-05-13T14:12:41.666Z,102073.91
2019-05-13T14:15:21.515Z,102069.89
2019-05-13T14:17:56.049Z,102069.41
2019-05-13T14:20:28.593Z,102068.52
2019-05-13T14:23:04.004Z,102065.61
2019-05-13T14:25:38.598Z,102062.88
2019-05-13T14:28:17.067Z,102061.09
2019-05-13T14:30:51.508Z,102056.64
2019-05-13T14:33:26.124Z,102050.63
2019-05-13T14:36:01.320Z,102045.47
2019-05-13T14:38:35.576Z,102049.62
2019-05-13T14:41:09.320Z,102048.35
2019-05-13T14:43:44.903Z,102049.05
2019-05-13T14:46:24.922Z,102049.98
2019-05-13T14:49:03.745Z,102050.95
2019-05-13T14:51:38.650Z,102047.73
2019-05-13T14:54:12.812Z,102051.02
2019-05-13T14:56:46.626Z,102043.26
2019-05-13T14:59:21.885Z,102044.34
2019-05-13T15:01:55.933Z,102045.67
2019-05-13T15:04:32.573Z,102043.67
2019-05-13T15:07:06.246Z,102046.61
2019-05-13T15:09:38.854Z,102044.59
2019-05-13T15:12:11.375Z,102039.89
2019-05-13T15:14:44.058Z,102033.09
2019-05-13T15:17:16.606Z,102037.65
2019-05-13T15:19:54.403Z,102033.13
2019-05-13T15:22:31.990Z,102027.20
2019-05-13T15:25:06.206Z,102029.42
2019-05-13T15:27:55.346Z,102029.31
2019-05-13T15:30:31.533Z,102029.23
2019-05-13T15:33:07.102Z,102036.89
2019-05-13T15:35:41.962Z,102025.17
2019-05-13T15:38:17.578Z,102028.59
2019-05-13T15:40:53.852Z,102026.61
2019-05-13T15:43:31.589Z,102018.91
2019-05-13T15:46:06.262Z,102014.13
2019-05-13T15:48:41.879Z,102011.84
2019-05-13T15:51:15.009Z,102013.84
2019-05-13T15:53:52.727Z,102008.06
2019-05-13T15:56:25.699Z,102006.23
2019-05-13T15:59:01.747Z,102006.20
2019-05-13T16:01:38.180Z,102008.38
2019-05-13T16:04:13.860Z,102003.10
2019-05-13T16:06:48.328Z,101994.75
2019-05-13T16:09:21.257Z,101996.97
2019-05-13T16:11:53.724Z,101996.03
2019-05-13T16:14:27.975Z,101996.39
2019-05-13T16:17:05.752Z,101991.41
2019-05-13T16:19:38.288Z,101989.52
2019-05-13T16:22:11.879Z,101989.59
2019-05-13T16:24:46.248Z,101995.64
2019-05-13T16:27:23.344Z,101991.42
2019-05-13T16:30:02.441Z,101989.73
2019-05-13T16:32:36.805Z,101984.91
2019-05-13T16:35:09.537Z,101983.64
2019-05-13T16:37:42.426Z,101983.23
2019-05-13T16:40:18.197Z,101989.11
2019-05-13T16:42:52.822Z,101989.36
2019-05-13T16:45:31.316Z,101983.70
2019-05-13T16:48:06.995Z,101979.66
2019-05-13T16:50:41.874Z,101981.84
2019-05-13T16:53:15.651Z,101981.97
2019-05-13T16:55:54.669Z,101979.93
2019-05-13T16:58:29.090Z,101982.86
2019-05-13T17:01:02.901Z,101976.74
2019-05-13T17:03:37.179Z,101980.52
2019-05-13T17:06:09.814Z,101983.98
2019-05-13T17:08:42.700Z,101983.27
2019-05-13T17:11:27.186Z,101981.70
2019-05-13T17:14:11.805Z,101979.19
2019-05-13T17:16:47.373Z,101983.05
2019-05-13T17:19:23.949Z,101982.46
2019-05-13T17:21:57.673Z,101983.05
2019-05-13T17:24:37.309Z,101985.14
2019-05-13T17:27:12.134Z,101975.16
2019-05-13T17:29:47.772Z,101973.91
2019-05-13T17:32:25.034Z,101970.33
2019-05-13T17:34:58.610Z,101968.64
2019-05-13T17:37:31.424Z,101965.70
2019-05-13T17:40:05.395Z,101964.72
2019-05-13T17:42:41.423Z,101969.92
2019-05-13T17:45:17.326Z,101962.92
2019-05-13T17:47:51.837Z,101961.45
2019-05-13T17:50:25.560Z,101962.45
2019-05-13T17:53:01.901Z,101958.78
2019-05-13T17:55:34.696Z,101955.47
2019-05-13T17:58:11.662Z,101958.66
2019-05-13T18:00:49.119Z,101961.11
2019-05-13T18:03:23.429Z,101963.13
2019-05-13T18:05:57.412Z,101961.58
2019-05-13T18:08:41.181Z,101961.01
2019-05-13T18:11:15.026Z,101955.96
2019-05-13T18:13:51.854Z,101958.90
2019-05-13T18:16:34.715Z,101952.53
2019-05-13T18:19:19.219Z,101954.52
2019-05-13T18:21:59.368Z,101955.25
2019-05-13T18:24:35.280Z,101952.78
2019-05-13T18:27:08.282Z,101950.95
2019-05-13T18:29:44.539Z,101949.08
2019-05-13T18:32:18.840Z,101944.55
2019-05-13T18:34:52.373Z,101948.03
2019-05-13T18:37:25.108Z,101944.68
2019-05-13T18:39:58.251Z,101946.20
2019-05-13T18:42:32.306Z,101949.76
2019-05-13T18:45:08.261Z,101945.36
2019-05-13T18:47:42.577Z,101949.30
2019-05-13T18:50:16.344Z,101949.16
2019-05-13T18:52:49.060Z,101951.71
2019-05-13T18:55:21.848Z,101954.81
2019-05-13T18:57:57.705Z,101953.67
2019-05-13T19:00:32.193Z,101951.70
2019-05-13T19:03:06.278Z,101950.66
2019-05-13T19:05:42.198Z,101953.13
2019-05-13T19:08:16.817Z,101961.83
2019-05-13T19:11:06.333Z,101962.15
2019-05-13T19:13:41.473Z,101963.13
2019-05-13T19:16:14.890Z,101969.95
2019-05-13T19:18:48.523Z,101971.59
2019-05-13T19:21:24.038Z,101965.00
2019-05-13T19:23:58.534Z,101967.45
2019-05-13T19:26:32.195Z,101971.91
2019-05-13T19:29:06.588Z,101975.47
2019-05-13T19:31:41.832Z,101974.43
2019-05-13T19:34:15.668Z,101976.97
2019-05-13T19:36:51.463Z,101973.75
2019-05-13T19:39:27.630Z,101980.55
2019-05-13T19:42:00.952Z,101979.57
2019-05-13T19:44:36.610Z,101979.10
2019-05-13T19:47:12.366Z,101979.97
2019-05-13T19:49:48.817Z,101976.13
2019-05-13T19:52:23.517Z,101974.59
2019-05-13T19:54:58.655Z,101977.28
2019-05-13T19:57:31.934Z,101975.57
2019-05-13T20:00:11.699Z,101974.56
2019-05-13T20:02:47.564Z,101984.77
2019-05-13T20:05:23.057Z,101985.58
2019-05-13T20:07:59.706Z,101974.16
2019-05-13T20:10:35.119Z,101979.55
2019-05-13T20:13:11.239Z,101978.17
2019-05-13T20:15:46.806Z,101971.58
2019-05-13T20:18:22.493Z,101974.42
2019-05-13T20:20:56.869Z,101973.48
2019-05-13T20:23:32.097Z,101974.25
2019-05-13T20:26:10.006Z,101965.28
2019-05-13T20:29:01.660Z,101970.55
2019-05-13T20:31:34.860Z,101979.13
2019-05-13T20:34:11.868Z,101983.80
2019-05-13T20:36:45.671Z,101983.08
2019-05-13T20:39:18.917Z,101985.39
2019-05-13T20:41:55.732Z,101992.70
2019-05-13T20:44:31.324Z,101990.19
2019-05-13T20:47:05.273Z,101987.29
2019-05-13T20:49:41.659Z,101984.59
2019-05-13T20:52:16.277Z,101992.55
2019-05-13T20:54:52.034Z,101990.84
2019-05-13T20:57:26.030Z,101995.59
2019-05-13T21:00:02.369Z,102002.57
2019-05-13T21:02:36.621Z,102004.67
2019-05-13T21:05:09.475Z,102001.44
2019-05-13T21:07:48.013Z,102004.78
2019-05-13T21:10:22.105Z,102003.15
2019-05-13T21:12:57.809Z,102007.58
2019-05-13T21:15:31.779Z,102003.46
2019-05-13T21:18:05.598Z,102004.39
2019-05-13T21:20:38.469Z,102002.16
2019-05-13T21:23:12.167Z,101998.73
2019-05-13T21:25:46.519Z,102001.71
2019-05-13T21:28:22.027Z,102001.05
2019-05-13T21:30:56.713Z,101999.48
2019-05-13T21:33:34.236Z,102001.89
2019-05-13T21:36:07.283Z,101999.05
2019-05-13T21:38:40.520Z,101998.45
2019-05-13T21:41:13.452Z,101995.61
2019-05-13T21:43:46.740Z,101995.64
2019-05-13T21:46:21.228Z,101997.81
2019-05-13T21:48:54.237Z,101996.03
2019-05-13T21:51:28.003Z,101995.61
2019-05-13T21:54:03.994Z,101994.95
2019-05-13T21:56:36.962Z,101994.88
2019-05-13T21:59:10.873Z,101996.55
2019-05-13T22:01:43.705Z,101993.91
2019-05-13T22:04:18.403Z,101989.92
2019-05-13T22:06:51.389Z,101992.88
2019-05-13T22:09:24.172Z,101991.28
2019-05-13T22:11:56.930Z,101988.05
2019-05-13T22:14:31.752Z,101991.27
2019-05-13T22:17:05.189Z,101985.79
2019-05-13T22:19:37.955Z,101985.52
2019-05-13T22:22:11.668Z,101978.24
2019-05-13T22:24:48.476Z,101985.38
2019-05-13T22:27:22.331Z,101983.44
2019-05-13T22:29:55.775Z,101982.47
2019-05-13T22:32:29.832Z,101982.10
2019-05-13T22:35:03.298Z,101980.69
2019-05-13T22:37:36.203Z,101977.53
2019-05-13T22:40:11.088Z,101979.78
2019-05-13T22:42:44.244Z,101978.81
2019-05-13T22:45:18.338Z,101977.17
2019-05-13T22:47:52.999Z,101981.63
2019-05-13T22:50:25.436Z,101979.61
2019-05-13T22:53:01.297Z,101979.94
2019-05-13T22:55:34.755Z,101980.31
2019-05-13T22:58:08.340Z,101979.22
2019-05-13T23:00:44.672Z,101974.85
2019-05-13T23:03:20.492Z,101976.97
2019-05-13T23:05:53.597Z,101977.30
2019-05-13T23:08:28.197Z,101972.69
2019-05-13T23:11:01.983Z,101971.52
2019-05-13T23:13:36.533Z,101974.70
2019-05-13T23:16:11.535Z,101969.75
2019-05-13T23:18:44.174Z,101972.54
2019-05-13T23:21:17.497Z,101969.11
2019-05-13T23:23:51.460Z,101965.89
2019-05-13T23:26:24.196Z,101961.63
2019-05-13T23:28:56.767Z,101958.69
2019-05-13T23:31:29.472Z,101959.70
2019-05-13T23:34:02.025Z,101962.02
2019-05-13T23:36:34.571Z,101962.42
2019-05-13T23:39:07.993Z,101956.23
2019-05-13T23:41:41.596Z,101956.02
2019-05-13T23:44:25.056Z,101947.80
2019-05-13T23:47:00.953Z,101952.56
2019-05-13T23:49:34.421Z,101948.63
2019-05-13T23:52:07.337Z,101948.11
2019-05-13T23:54:42.167Z,101947.64
2019-05-13T23:57:15.497Z,101946.20
2019-05-13T23:59:48.274Z,101946.27
